sensor_id;sensor_type;location;lat;lon;timestamp;P1;durP1;ratioP1;P2;durP2;ratioP2
13959;SDS011;7052;51.050;3.716;2023-04-16T00:01:39;9.13;;;4.00;;
13959;SDS011;7052;51.050;3.716;2023-04-16T00:04:06;6.90;;;4.00;;
13959;SDS011;7052;51.050;3.716;2023-04-16T00:06:35;6.33;;;3.87;;
13959;SDS011;7052;51.050;3.716;2023-04-16T00:09:02;7.33;;;3.60;;
13959;SDS011;7052;51.050;3.716;2023-04-16T00:11:29;8.30;;;4.03;;
13959;SDS011;7052;51.050;3.716;2023-04-16T00:13:56;9.53;;;3.80;;
13959;SDS011;7052;51.050;3.716;2023-04-16T00:16:26;6.57;;;3.33;;
13959;SDS011;7052;51.050;3.716;2023-04-16T00:18:53;8.90;;;3.47;;
13959;SDS011;7052;51.050;3.716;2023-04-16T00:21:20;8.47;;;3.50;;
13959;SDS011;7052;51.050;3.716;2023-04-16T00:23:48;7.23;;;3.60;;
13959;SDS011;7052;51.050;3.716;2023-04-16T00:26:15;7.53;;;3.40;;
13959;SDS011;7052;51.050;3.716;2023-04-16T00:28:42;7.47;;;3.13;;
13959;SDS011;7052;51.050;3.716;2023-04-16T00:31:09;7.83;;;3.70;;
13959;SDS011;7052;51.050;3.716;2023-04-16T00:33:39;8.43;;;3.07;;
13959;SDS011;7052;51.050;3.716;2023-04-16T00:36:06;9.60;;;2.80;;
13959;SDS011;7052;51.050;3.716;2023-04-16T00:38:34;7.90;;;2.63;;
13959;SDS011;7052;51.050;3.716;2023-04-16T00:41:07;6.57;;;2.80;;
13959;SDS011;7052;51.050;3.716;2023-04-16T00:43:33;7.17;;;2.90;;
13959;SDS011;7052;51.050;3.716;2023-04-16T00:46:03;9.67;;;2.70;;
13959;SDS011;7052;51.050;3.716;2023-04-16T00:48:31;5.37;;;2.90;;
13959;SDS011;7052;51.050;3.716;2023-04-16T00:50:58;7.40;;;2.87;;
13959;SDS011;7052;51.050;3.716;2023-04-16T00:53:29;7.93;;;2.80;;
13959;SDS011;7052;51.050;3.716;2023-04-16T00:55:56;4.80;;;2.50;;
13959;SDS011;7052;51.050;3.716;2023-04-16T00:58:25;8.93;;;3.00;;
13959;SDS011;7052;51.050;3.716;2023-04-16T01:00:53;6.63;;;2.70;;
13959;SDS011;7052;51.050;3.716;2023-04-16T01:03:22;8.73;;;2.73;;
13959;SDS011;7052;51.050;3.716;2023-04-16T01:05:56;8.20;;;2.93;;
13959;SDS011;7052;51.050;3.716;2023-04-16T01:08:24;10.03;;;2.60;;
13959;SDS011;7052;51.050;3.716;2023-04-16T01:10:51;7.53;;;2.53;;
13959;SDS011;7052;51.050;3.716;2023-04-16T01:13:18;8.57;;;3.10;;
13959;SDS011;7052;51.050;3.716;2023-04-16T01:15:46;4.13;;;2.30;;
13959;SDS011;7052;51.050;3.716;2023-04-16T01:18:13;8.20;;;2.70;;
13959;SDS011;7052;51.050;3.716;2023-04-16T01:20:43;6.50;;;2.37;;
13959;SDS011;7052;51.050;3.716;2023-04-16T01:23:11;7.70;;;2.40;;
13959;SDS011;7052;51.050;3.716;2023-04-16T01:25:38;4.17;;;2.10;;
13959;SDS011;7052;51.050;3.716;2023-04-16T01:28:05;5.27;;;2.77;;
13959;SDS011;7052;51.050;3.716;2023-04-16T01:30:32;3.40;;;1.87;;
13959;SDS011;7052;51.050;3.716;2023-04-16T01:32:59;3.43;;;2.13;;
13959;SDS011;7052;51.050;3.716;2023-04-16T01:35:32;5.73;;;2.60;;
13959;SDS011;7052;51.050;3.716;2023-04-16T01:38:01;7.03;;;2.43;;
13959;SDS011;7052;51.050;3.716;2023-04-16T01:40:33;7.00;;;2.27;;
13959;SDS011;7052;51.050;3.716;2023-04-16T01:43:00;7.23;;;2.63;;
13959;SDS011;7052;51.050;3.716;2023-04-16T01:45:28;5.27;;;2.53;;
13959;SDS011;7052;51.050;3.716;2023-04-16T01:47:56;5.93;;;2.57;;
13959;SDS011;7052;51.050;3.716;2023-04-16T01:50:23;4.67;;;2.37;;
13959;SDS011;7052;51.050;3.716;2023-04-16T01:52:50;5.57;;;2.50;;
13959;SDS011;7052;51.050;3.716;2023-04-16T01:55:19;7.07;;;2.53;;
13959;SDS011;7052;51.050;3.716;2023-04-16T01:57:46;5.00;;;2.30;;
13959;SDS011;7052;51.050;3.716;2023-04-16T02:00:12;4.07;;;2.00;;
13959;SDS011;7052;51.050;3.716;2023-04-16T02:02:41;4.80;;;2.33;;
13959;SDS011;7052;51.050;3.716;2023-04-16T02:05:08;6.70;;;2.47;;
13959;SDS011;7052;51.050;3.716;2023-04-16T02:07:35;5.43;;;2.20;;
13959;SDS011;7052;51.050;3.716;2023-04-16T02:10:02;7.53;;;2.23;;
13959;SDS011;7052;51.050;3.716;2023-04-16T02:12:31;4.23;;;2.00;;
13959;SDS011;7052;51.050;3.716;2023-04-16T02:14:58;2.77;;;2.07;;
13959;SDS011;7052;51.050;3.716;2023-04-16T02:17:26;5.20;;;1.90;;
13959;SDS011;7052;51.050;3.716;2023-04-16T02:19:53;5.80;;;2.40;;
13959;SDS011;7052;51.050;3.716;2023-04-16T02:22:20;4.13;;;1.93;;
13959;SDS011;7052;51.050;3.716;2023-04-16T02:24:47;3.17;;;1.83;;
13959;SDS011;7052;51.050;3.716;2023-04-16T02:27:14;5.10;;;2.10;;
13959;SDS011;7052;51.050;3.716;2023-04-16T02:29:47;5.47;;;1.90;;
13959;SDS011;7052;51.050;3.716;2023-04-16T02:32:16;4.27;;;1.90;;
13959;SDS011;7052;51.050;3.716;2023-04-16T02:34:45;7.03;;;2.10;;
13959;SDS011;7052;51.050;3.716;2023-04-16T02:37:12;6.90;;;2.20;;
13959;SDS011;7052;51.050;3.716;2023-04-16T02:39:40;5.97;;;2.47;;
13959;SDS011;7052;51.050;3.716;2023-04-16T02:42:07;5.23;;;2.10;;
13959;SDS011;7052;51.050;3.716;2023-04-16T02:44:36;5.90;;;2.40;;
13959;SDS011;7052;51.050;3.716;2023-04-16T02:47:04;5.27;;;2.17;;
13959;SDS011;7052;51.050;3.716;2023-04-16T02:49:31;5.77;;;2.13;;
13959;SDS011;7052;51.050;3.716;2023-04-16T02:51:59;5.20;;;2.00;;
13959;SDS011;7052;51.050;3.716;2023-04-16T02:54:26;6.47;;;1.97;;
13959;SDS011;7052;51.050;3.716;2023-04-16T02:56:53;6.67;;;2.10;;
13959;SDS011;7052;51.050;3.716;2023-04-16T02:59:20;5.10;;;2.00;;
13959;SDS011;7052;51.050;3.716;2023-04-16T03:01:47;4.67;;;2.00;;
13959;SDS011;7052;51.050;3.716;2023-04-16T03:04:16;4.80;;;2.07;;
13959;SDS011;7052;51.050;3.716;2023-04-16T03:06:43;5.97;;;2.03;;
13959;SDS011;7052;51.050;3.716;2023-04-16T03:09:11;5.90;;;2.27;;
13959;SDS011;7052;51.050;3.716;2023-04-16T03:11:39;5.73;;;1.80;;
13959;SDS011;7052;51.050;3.716;2023-04-16T03:14:06;4.40;;;1.67;;
13959;SDS011;7052;51.050;3.716;2023-04-16T03:16:33;4.27;;;2.07;;
13959;SDS011;7052;51.050;3.716;2023-04-16T03:19:00;5.57;;;2.10;;
13959;SDS011;7052;51.050;3.716;2023-04-16T03:21:29;5.97;;;2.07;;
13959;SDS011;7052;51.050;3.716;2023-04-16T03:23:56;5.50;;;2.10;;
13959;SDS011;7052;51.050;3.716;2023-04-16T03:26:23;3.80;;;2.10;;
13959;SDS011;7052;51.050;3.716;2023-04-16T03:28:50;6.07;;;2.07;;
13959;SDS011;7052;51.050;3.716;2023-04-16T03:31:17;5.97;;;2.37;;
13959;SDS011;7052;51.050;3.716;2023-04-16T03:33:45;4.97;;;1.90;;
13959;SDS011;7052;51.050;3.716;2023-04-16T03:36:12;5.23;;;1.97;;
13959;SDS011;7052;51.050;3.716;2023-04-16T03:38:40;4.23;;;1.80;;
13959;SDS011;7052;51.050;3.716;2023-04-16T03:41:07;3.30;;;1.80;;
13959;SDS011;7052;51.050;3.716;2023-04-16T03:43:34;2.80;;;1.83;;
13959;SDS011;7052;51.050;3.716;2023-04-16T03:46:01;6.43;;;1.97;;
13959;SDS011;7052;51.050;3.716;2023-04-16T03:48:28;4.53;;;2.30;;
13959;SDS011;7052;51.050;3.716;2023-04-16T03:50:55;6.47;;;2.40;;
13959;SDS011;7052;51.050;3.716;2023-04-16T03:53:23;8.53;;;2.83;;
13959;SDS011;7052;51.050;3.716;2023-04-16T03:55:53;5.97;;;2.47;;
13959;SDS011;7052;51.050;3.716;2023-04-16T03:58:22;8.23;;;2.60;;
13959;SDS011;7052;51.050;3.716;2023-04-16T04:00:48;2.90;;;2.10;;
13959;SDS011;7052;51.050;3.716;2023-04-16T04:03:17;6.67;;;2.50;;
13959;SDS011;7052;51.050;3.716;2023-04-16T04:05:45;6.63;;;2.50;;
13959;SDS011;7052;51.050;3.716;2023-04-16T04:08:14;3.97;;;2.00;;
13959;SDS011;7052;51.050;3.716;2023-04-16T04:10:42;3.37;;;2.17;;
13959;SDS011;7052;51.050;3.716;2023-04-16T04:13:11;5.73;;;2.40;;
13959;SDS011;7052;51.050;3.716;2023-04-16T04:15:38;10.00;;;2.50;;
13959;SDS011;7052;51.050;3.716;2023-04-16T04:18:05;5.37;;;2.40;;
13959;SDS011;7052;51.050;3.716;2023-04-16T04:20:37;5.23;;;2.20;;
13959;SDS011;7052;51.050;3.716;2023-04-16T04:23:05;5.27;;;2.47;;
13959;SDS011;7052;51.050;3.716;2023-04-16T04:25:39;5.47;;;2.60;;
13959;SDS011;7052;51.050;3.716;2023-04-16T04:28:07;5.40;;;2.40;;
13959;SDS011;7052;51.050;3.716;2023-04-16T04:30:35;5.50;;;2.30;;
13959;SDS011;7052;51.050;3.716;2023-04-16T04:33:03;6.30;;;2.73;;
13959;SDS011;7052;51.050;3.716;2023-04-16T04:35:32;7.50;;;2.37;;
13959;SDS011;7052;51.050;3.716;2023-04-16T04:37:59;8.13;;;2.90;;
13959;SDS011;7052;51.050;3.716;2023-04-16T04:40:26;5.70;;;2.27;;
13959;SDS011;7052;51.050;3.716;2023-04-16T04:42:55;5.07;;;2.40;;
13959;SDS011;7052;51.050;3.716;2023-04-16T04:45:23;4.30;;;2.20;;
13959;SDS011;7052;51.050;3.716;2023-04-16T04:47:52;5.43;;;2.43;;
13959;SDS011;7052;51.050;3.716;2023-04-16T04:50:20;8.87;;;2.30;;
13959;SDS011;7052;51.050;3.716;2023-04-16T04:52:47;7.60;;;2.50;;
13959;SDS011;7052;51.050;3.716;2023-04-16T04:55:14;5.27;;;2.23;;
13959;SDS011;7052;51.050;3.716;2023-04-16T04:57:41;5.37;;;2.30;;
13959;SDS011;7052;51.050;3.716;2023-04-16T05:00:09;3.97;;;2.27;;
13959;SDS011;7052;51.050;3.716;2023-04-16T05:02:36;7.43;;;2.70;;
13959;SDS011;7052;51.050;3.716;2023-04-16T05:05:07;4.50;;;2.50;;
13959;SDS011;7052;51.050;3.716;2023-04-16T05:07:35;2.73;;;2.33;;
13959;SDS011;7052;51.050;3.716;2023-04-16T05:10:02;4.63;;;2.60;;
13959;SDS011;7052;51.050;3.716;2023-04-16T05:12:29;5.63;;;2.53;;
13959;SDS011;7052;51.050;3.716;2023-04-16T05:14:57;3.67;;;2.30;;
13959;SDS011;7052;51.050;3.716;2023-04-16T05:17:24;5.20;;;2.23;;
13959;SDS011;7052;51.050;3.716;2023-04-16T05:19:51;6.53;;;2.47;;
13959;SDS011;7052;51.050;3.716;2023-04-16T05:22:19;6.20;;;2.30;;
13959;SDS011;7052;51.050;3.716;2023-04-16T05:24:46;4.60;;;2.40;;
13959;SDS011;7052;51.050;3.716;2023-04-16T05:27:21;6.30;;;2.40;;
13959;SDS011;7052;51.050;3.716;2023-04-16T05:29:48;5.50;;;2.60;;
13959;SDS011;7052;51.050;3.716;2023-04-16T05:32:14;3.83;;;2.77;;
13959;SDS011;7052;51.050;3.716;2023-04-16T05:34:41;5.37;;;2.73;;
13959;SDS011;7052;51.050;3.716;2023-04-16T05:37:10;6.83;;;2.80;;
13959;SDS011;7052;51.050;3.716;2023-04-16T05:39:39;3.30;;;2.73;;
13959;SDS011;7052;51.050;3.716;2023-04-16T05:42:08;4.93;;;2.53;;
13959;SDS011;7052;51.050;3.716;2023-04-16T05:44:36;3.90;;;2.93;;
13959;SDS011;7052;51.050;3.716;2023-04-16T05:47:03;9.40;;;2.97;;
13959;SDS011;7052;51.050;3.716;2023-04-16T05:49:31;7.43;;;3.10;;
13959;SDS011;7052;51.050;3.716;2023-04-16T05:51:58;6.03;;;2.80;;
13959;SDS011;7052;51.050;3.716;2023-04-16T05:54:25;7.40;;;2.90;;
13959;SDS011;7052;51.050;3.716;2023-04-16T05:56:53;6.73;;;2.90;;
13959;SDS011;7052;51.050;3.716;2023-04-16T05:59:20;7.20;;;3.03;;
13959;SDS011;7052;51.050;3.716;2023-04-16T06:01:47;10.23;;;3.17;;
13959;SDS011;7052;51.050;3.716;2023-04-16T06:04:14;4.57;;;2.77;;
13959;SDS011;7052;51.050;3.716;2023-04-16T06:06:41;5.23;;;2.83;;
13959;SDS011;7052;51.050;3.716;2023-04-16T06:09:08;5.00;;;2.63;;
13959;SDS011;7052;51.050;3.716;2023-04-16T06:11:36;6.37;;;2.73;;
13959;SDS011;7052;51.050;3.716;2023-04-16T06:14:06;3.50;;;2.20;;
13959;SDS011;7052;51.050;3.716;2023-04-16T06:16:34;5.53;;;2.70;;
13959;SDS011;7052;51.050;3.716;2023-04-16T06:19:02;6.07;;;2.70;;
13959;SDS011;7052;51.050;3.716;2023-04-16T06:21:29;3.53;;;2.57;;
13959;SDS011;7052;51.050;3.716;2023-04-16T06:23:57;5.97;;;2.63;;
13959;SDS011;7052;51.050;3.716;2023-04-16T06:26:27;4.90;;;2.40;;
13959;SDS011;7052;51.050;3.716;2023-04-16T06:28:54;5.87;;;2.60;;
13959;SDS011;7052;51.050;3.716;2023-04-16T06:31:22;8.13;;;3.33;;
13959;SDS011;7052;51.050;3.716;2023-04-16T06:33:52;6.95;;;3.17;;
13959;SDS011;7052;51.050;3.716;2023-04-16T06:36:20;5.17;;;2.97;;
13959;SDS011;7052;51.050;3.716;2023-04-16T06:38:48;5.27;;;2.80;;
13959;SDS011;7052;51.050;3.716;2023-04-16T06:41:16;6.77;;;3.20;;
13959;SDS011;7052;51.050;3.716;2023-04-16T06:43:43;3.93;;;2.70;;
13959;SDS011;7052;51.050;3.716;2023-04-16T06:46:10;7.60;;;3.00;;
13959;SDS011;7052;51.050;3.716;2023-04-16T06:48:39;6.63;;;3.00;;
13959;SDS011;7052;51.050;3.716;2023-04-16T06:51:06;9.50;;;3.30;;
13959;SDS011;7052;51.050;3.716;2023-04-16T06:53:33;6.43;;;3.63;;
13959;SDS011;7052;51.050;3.716;2023-04-16T06:56:03;5.70;;;3.07;;
13959;SDS011;7052;51.050;3.716;2023-04-16T06:58:32;6.53;;;3.00;;
13959;SDS011;7052;51.050;3.716;2023-04-16T07:00:59;5.77;;;2.90;;
13959;SDS011;7052;51.050;3.716;2023-04-16T07:03:26;5.33;;;3.20;;
13959;SDS011;7052;51.050;3.716;2023-04-16T07:05:55;7.07;;;3.40;;
13959;SDS011;7052;51.050;3.716;2023-04-16T07:08:22;6.80;;;3.50;;
13959;SDS011;7052;51.050;3.716;2023-04-16T07:10:51;6.27;;;2.90;;
13959;SDS011;7052;51.050;3.716;2023-04-16T07:13:20;5.70;;;3.10;;
13959;SDS011;7052;51.050;3.716;2023-04-16T07:15:47;7.87;;;2.87;;
13959;SDS011;7052;51.050;3.716;2023-04-16T07:18:14;5.27;;;2.80;;
13959;SDS011;7052;51.050;3.716;2023-04-16T07:20:41;3.47;;;2.33;;
13959;SDS011;7052;51.050;3.716;2023-04-16T07:23:13;3.47;;;2.60;;
13959;SDS011;7052;51.050;3.716;2023-04-16T07:25:42;6.33;;;3.13;;
13959;SDS011;7052;51.050;3.716;2023-04-16T07:28:08;4.73;;;2.77;;
13959;SDS011;7052;51.050;3.716;2023-04-16T07:30:35;5.63;;;2.80;;
13959;SDS011;7052;51.050;3.716;2023-04-16T07:33:04;3.57;;;2.93;;
13959;SDS011;7052;51.050;3.716;2023-04-16T07:35:34;5.33;;;3.00;;
13959;SDS011;7052;51.050;3.716;2023-04-16T07:38:03;4.97;;;3.20;;
13959;SDS011;7052;51.050;3.716;2023-04-16T07:40:31;5.83;;;3.00;;
13959;SDS011;7052;51.050;3.716;2023-04-16T07:42:58;5.93;;;3.10;;
13959;SDS011;7052;51.050;3.716;2023-04-16T07:45:25;5.73;;;3.37;;
13959;SDS011;7052;51.050;3.716;2023-04-16T07:47:54;5.67;;;3.10;;
13959;SDS011;7052;51.050;3.716;2023-04-16T07:50:21;5.63;;;3.13;;
13959;SDS011;7052;51.050;3.716;2023-04-16T07:52:48;4.90;;;3.10;;
13959;SDS011;7052;51.050;3.716;2023-04-16T07:55:15;7.23;;;3.20;;
13959;SDS011;7052;51.050;3.716;2023-04-16T07:57:44;7.43;;;3.27;;
13959;SDS011;7052;51.050;3.716;2023-04-16T08:00:11;3.70;;;2.83;;
13959;SDS011;7052;51.050;3.716;2023-04-16T08:02:38;5.23;;;2.77;;
13959;SDS011;7052;51.050;3.716;2023-04-16T08:05:06;3.90;;;3.00;;
13959;SDS011;7052;51.050;3.716;2023-04-16T08:07:33;5.57;;;3.03;;
13959;SDS011;7052;51.050;3.716;2023-04-16T08:10:00;6.13;;;2.90;;
13959;SDS011;7052;51.050;3.716;2023-04-16T08:12:28;6.10;;;2.73;;
13959;SDS011;7052;51.050;3.716;2023-04-16T08:14:57;5.43;;;2.97;;
13959;SDS011;7052;51.050;3.716;2023-04-16T08:17:24;8.20;;;2.90;;
13959;SDS011;7052;51.050;3.716;2023-04-16T08:19:52;6.03;;;3.10;;
13959;SDS011;7052;51.050;3.716;2023-04-16T08:22:19;4.23;;;3.10;;
13959;SDS011;7052;51.050;3.716;2023-04-16T08:24:47;5.53;;;3.53;;
13959;SDS011;7052;51.050;3.716;2023-04-16T08:27:17;5.30;;;3.57;;
13959;SDS011;7052;51.050;3.716;2023-04-16T08:29:43;5.40;;;3.60;;
13959;SDS011;7052;51.050;3.716;2023-04-16T08:32:15;6.50;;;3.60;;
13959;SDS011;7052;51.050;3.716;2023-04-16T08:34:42;4.57;;;3.40;;
13959;SDS011;7052;51.050;3.716;2023-04-16T08:37:10;6.97;;;3.80;;
13959;SDS011;7052;51.050;3.716;2023-04-16T08:39:37;7.17;;;3.67;;
13959;SDS011;7052;51.050;3.716;2023-04-16T08:42:07;6.50;;;3.90;;
13959;SDS011;7052;51.050;3.716;2023-04-16T08:44:46;7.10;;;3.93;;
13959;SDS011;7052;51.050;3.716;2023-04-16T08:47:19;6.30;;;4.22;;
13959;SDS011;7052;51.050;3.716;2023-04-16T08:49:49;6.00;;;3.73;;
13959;SDS011;7052;51.050;3.716;2023-04-16T08:52:17;4.87;;;3.77;;
13959;SDS011;7052;51.050;3.716;2023-04-16T08:54:47;6.30;;;4.17;;
13959;SDS011;7052;51.050;3.716;2023-04-16T08:57:22;6.27;;;4.37;;
13959;SDS011;7052;51.050;3.716;2023-04-16T08:59:56;6.60;;;5.30;;
13959;SDS011;7052;51.050;3.716;2023-04-16T09:02:38;5.53;;;4.13;;
13959;SDS011;7052;51.050;3.716;2023-04-16T09:05:07;4.37;;;3.37;;
13959;SDS011;7052;51.050;3.716;2023-04-16T09:07:35;5.17;;;3.83;;
13959;SDS011;7052;51.050;3.716;2023-04-16T09:10:04;5.67;;;3.40;;
13959;SDS011;7052;51.050;3.716;2023-04-16T09:12:33;4.00;;;3.30;;
13959;SDS011;7052;51.050;3.716;2023-04-16T09:15:01;7.00;;;3.10;;
13959;SDS011;7052;51.050;3.716;2023-04-16T09:17:34;8.70;;;3.20;;
13959;SDS011;7052;51.050;3.716;2023-04-16T09:23:24;6.77;;;2.93;;
13959;SDS011;7052;51.050;3.716;2023-04-16T09:25:52;5.77;;;3.27;;
13959;SDS011;7052;51.050;3.716;2023-04-16T09:28:38;7.23;;;2.97;;
13959;SDS011;7052;51.050;3.716;2023-04-16T09:31:07;4.90;;;3.30;;
13959;SDS011;7052;51.050;3.716;2023-04-16T09:33:41;4.37;;;2.90;;
13959;SDS011;7052;51.050;3.716;2023-04-16T09:36:10;7.57;;;3.40;;
13959;SDS011;7052;51.050;3.716;2023-04-16T09:38:46;7.00;;;3.40;;
13959;SDS011;7052;51.050;3.716;2023-04-16T09:41:17;6.53;;;3.47;;
13959;SDS011;7052;51.050;3.716;2023-04-16T09:43:55;4.70;;;3.13;;
13959;SDS011;7052;51.050;3.716;2023-04-16T09:46:28;5.73;;;3.50;;
13959;SDS011;7052;51.050;3.716;2023-04-16T09:49:03;5.23;;;3.17;;
13959;SDS011;7052;51.050;3.716;2023-04-16T09:51:36;3.87;;;2.90;;
13959;SDS011;7052;51.050;3.716;2023-04-16T09:54:06;4.63;;;2.83;;
13959;SDS011;7052;51.050;3.716;2023-04-16T09:56:40;10.07;;;3.67;;
13959;SDS011;7052;51.050;3.716;2023-04-16T09:59:08;4.63;;;3.07;;
13959;SDS011;7052;51.050;3.716;2023-04-16T10:01:42;4.30;;;2.97;;
13959;SDS011;7052;51.050;3.716;2023-04-16T10:04:10;5.40;;;4.15;;
13959;SDS011;7052;51.050;3.716;2023-04-16T10:06:41;5.27;;;3.53;;
13959;SDS011;7052;51.050;3.716;2023-04-16T10:09:09;4.10;;;3.33;;
13959;SDS011;7052;51.050;3.716;2023-04-16T10:11:40;6.23;;;3.90;;
13959;SDS011;7052;51.050;3.716;2023-04-16T10:14:07;5.20;;;3.40;;
13959;SDS011;7052;51.050;3.716;2023-04-16T10:16:35;5.50;;;3.90;;
13959;SDS011;7052;51.050;3.716;2023-04-16T10:19:04;5.07;;;3.43;;
13959;SDS011;7052;51.050;3.716;2023-04-16T10:21:31;6.83;;;3.50;;
13959;SDS011;7052;51.050;3.716;2023-04-16T10:24:03;5.43;;;3.03;;
13959;SDS011;7052;51.050;3.716;2023-04-16T10:26:32;5.73;;;3.20;;
13959;SDS011;7052;51.050;3.716;2023-04-16T10:29:01;5.50;;;3.85;;
13959;SDS011;7052;51.050;3.716;2023-04-16T10:31:38;6.13;;;3.33;;
13959;SDS011;7052;51.050;3.716;2023-04-16T10:34:07;4.73;;;3.53;;
13959;SDS011;7052;51.050;3.716;2023-04-16T10:36:35;6.18;;;4.35;;
13959;SDS011;7052;51.050;3.716;2023-04-16T10:39:08;5.10;;;4.13;;
13959;SDS011;7052;51.050;3.716;2023-04-16T10:41:41;6.50;;;4.17;;
13959;SDS011;7052;51.050;3.716;2023-04-16T10:44:09;8.07;;;3.63;;
13959;SDS011;7052;51.050;3.716;2023-04-16T10:46:37;6.57;;;3.50;;
13959;SDS011;7052;51.050;3.716;2023-04-16T10:49:12;5.83;;;3.30;;
13959;SDS011;7052;51.050;3.716;2023-04-16T10:51:40;7.10;;;3.60;;
13959;SDS011;7052;51.050;3.716;2023-04-16T10:54:20;6.47;;;3.63;;
13959;SDS011;7052;51.050;3.716;2023-04-16T10:56:54;5.87;;;3.43;;
13959;SDS011;7052;51.050;3.716;2023-04-16T10:59:26;7.83;;;3.87;;
13959;SDS011;7052;51.050;3.716;2023-04-16T11:01:57;8.87;;;3.83;;
13959;SDS011;7052;51.050;3.716;2023-04-16T11:04:36;6.27;;;3.80;;
13959;SDS011;7052;51.050;3.716;2023-04-16T11:07:05;5.47;;;3.30;;
13959;SDS011;7052;51.050;3.716;2023-04-16T11:09:46;5.93;;;3.23;;
13959;SDS011;7052;51.050;3.716;2023-04-16T11:12:20;5.87;;;3.33;;
13959;SDS011;7052;51.050;3.716;2023-04-16T11:14:48;6.13;;;3.30;;
13959;SDS011;7052;51.050;3.716;2023-04-16T11:17:17;7.23;;;3.60;;
13959;SDS011;7052;51.050;3.716;2023-04-16T11:19:44;4.67;;;3.10;;
13959;SDS011;7052;51.050;3.716;2023-04-16T11:22:30;4.20;;;3.30;;
13959;SDS011;7052;51.050;3.716;2023-04-16T11:25:02;7.00;;;3.80;;
13959;SDS011;7052;51.050;3.716;2023-04-16T11:27:31;4.00;;;3.33;;
13959;SDS011;7052;51.050;3.716;2023-04-16T11:30:01;6.60;;;3.90;;
13959;SDS011;7052;51.050;3.716;2023-04-16T11:32:30;6.73;;;3.90;;
13959;SDS011;7052;51.050;3.716;2023-04-16T11:34:58;7.23;;;3.30;;
13959;SDS011;7052;51.050;3.716;2023-04-16T11:37:30;6.47;;;3.90;;
13959;SDS011;7052;51.050;3.716;2023-04-16T11:39:59;6.67;;;3.60;;
13959;SDS011;7052;51.050;3.716;2023-04-16T11:42:28;4.83;;;3.60;;
13959;SDS011;7052;51.050;3.716;2023-04-16T11:44:56;6.03;;;3.47;;
13959;SDS011;7052;51.050;3.716;2023-04-16T11:47:25;4.43;;;3.30;;
13959;SDS011;7052;51.050;3.716;2023-04-16T11:49:52;6.10;;;3.40;;
13959;SDS011;7052;51.050;3.716;2023-04-16T11:52:26;7.23;;;4.03;;
13959;SDS011;7052;51.050;3.716;2023-04-16T11:54:53;10.40;;;4.37;;
13959;SDS011;7052;51.050;3.716;2023-04-16T11:57:23;6.20;;;3.73;;
13959;SDS011;7052;51.050;3.716;2023-04-16T11:59:53;5.27;;;3.60;;
13959;SDS011;7052;51.050;3.716;2023-04-16T12:02:34;6.13;;;3.80;;
13959;SDS011;7052;51.050;3.716;2023-04-16T12:05:05;4.87;;;3.10;;
13959;SDS011;7052;51.050;3.716;2023-04-16T12:07:50;9.03;;;3.50;;
13959;SDS011;7052;51.050;3.716;2023-04-16T12:10:18;6.07;;;3.80;;
13959;SDS011;7052;51.050;3.716;2023-04-16T12:12:48;7.13;;;3.77;;
13959;SDS011;7052;51.050;3.716;2023-04-16T12:15:17;6.10;;;3.80;;
13959;SDS011;7052;51.050;3.716;2023-04-16T12:17:44;6.77;;;4.00;;
13959;SDS011;7052;51.050;3.716;2023-04-16T12:20:12;8.17;;;3.73;;
13959;SDS011;7052;51.050;3.716;2023-04-16T12:22:42;9.07;;;4.50;;
13959;SDS011;7052;51.050;3.716;2023-04-16T12:25:11;7.47;;;4.20;;
13959;SDS011;7052;51.050;3.716;2023-04-16T12:27:42;5.93;;;4.03;;
13959;SDS011;7052;51.050;3.716;2023-04-16T12:30:15;5.67;;;3.80;;
13959;SDS011;7052;51.050;3.716;2023-04-16T12:32:46;7.30;;;3.70;;
13959;SDS011;7052;51.050;3.716;2023-04-16T12:35:27;9.70;;;4.07;;
13959;SDS011;7052;51.050;3.716;2023-04-16T12:37:55;9.73;;;4.10;;
13959;SDS011;7052;51.050;3.716;2023-04-16T12:40:22;6.33;;;3.63;;
13959;SDS011;7052;51.050;3.716;2023-04-16T12:42:56;9.73;;;4.10;;
13959;SDS011;7052;51.050;3.716;2023-04-16T12:45:24;6.67;;;4.20;;
13959;SDS011;7052;51.050;3.716;2023-04-16T12:48:00;6.93;;;3.80;;
13959;SDS011;7052;51.050;3.716;2023-04-16T12:50:27;5.77;;;3.60;;
13959;SDS011;7052;51.050;3.716;2023-04-16T12:52:54;5.47;;;3.97;;
13959;SDS011;7052;51.050;3.716;2023-04-16T12:55:24;7.43;;;3.60;;
13959;SDS011;7052;51.050;3.716;2023-04-16T12:57:51;7.63;;;3.47;;
13959;SDS011;7052;51.050;3.716;2023-04-16T13:00:20;5.87;;;3.40;;
13959;SDS011;7052;51.050;3.716;2023-04-16T13:02:48;6.33;;;3.53;;
13959;SDS011;7052;51.050;3.716;2023-04-16T13:05:16;6.57;;;4.20;;
13959;SDS011;7052;51.050;3.716;2023-04-16T13:07:45;6.83;;;4.10;;
13959;SDS011;7052;51.050;3.716;2023-04-16T13:10:12;5.93;;;3.63;;
13959;SDS011;7052;51.050;3.716;2023-04-16T13:12:40;4.93;;;3.63;;
13959;SDS011;7052;51.050;3.716;2023-04-16T13:15:07;11.87;;;4.50;;
13959;SDS011;7052;51.050;3.716;2023-04-16T13:17:35;8.50;;;4.07;;
13959;SDS011;7052;51.050;3.716;2023-04-16T13:20:05;7.57;;;4.27;;
13959;SDS011;7052;51.050;3.716;2023-04-16T13:22:35;7.43;;;4.20;;
13959;SDS011;7052;51.050;3.716;2023-04-16T13:25:06;6.67;;;4.10;;
13959;SDS011;7052;51.050;3.716;2023-04-16T13:27:36;8.50;;;4.30;;
13959;SDS011;7052;51.050;3.716;2023-04-16T13:30:04;5.33;;;3.80;;
13959;SDS011;7052;51.050;3.716;2023-04-16T13:32:32;7.77;;;4.30;;
13959;SDS011;7052;51.050;3.716;2023-04-16T13:35:00;8.87;;;4.43;;
13959;SDS011;7052;51.050;3.716;2023-04-16T13:37:33;6.77;;;4.10;;
13959;SDS011;7052;51.050;3.716;2023-04-16T13:40:00;4.97;;;4.20;;
13959;SDS011;7052;51.050;3.716;2023-04-16T13:42:27;6.83;;;3.90;;
13959;SDS011;7052;51.050;3.716;2023-04-16T13:44:54;7.00;;;4.13;;
13959;SDS011;7052;51.050;3.716;2023-04-16T13:47:22;4.83;;;4.00;;
13959;SDS011;7052;51.050;3.716;2023-04-16T13:49:49;7.43;;;4.03;;
13959;SDS011;7052;51.050;3.716;2023-04-16T13:52:16;6.87;;;3.97;;
13959;SDS011;7052;51.050;3.716;2023-04-16T13:54:45;6.10;;;4.03;;
13959;SDS011;7052;51.050;3.716;2023-04-16T13:57:13;7.17;;;4.30;;
13959;SDS011;7052;51.050;3.716;2023-04-16T13:59:45;6.03;;;4.00;;
13959;SDS011;7052;51.050;3.716;2023-04-16T14:02:12;4.63;;;3.70;;
13959;SDS011;7052;51.050;3.716;2023-04-16T14:04:41;4.27;;;3.83;;
13959;SDS011;7052;51.050;3.716;2023-04-16T14:07:07;8.43;;;4.80;;
13959;SDS011;7052;51.050;3.716;2023-04-16T14:09:37;6.80;;;4.13;;
13959;SDS011;7052;51.050;3.716;2023-04-16T14:12:06;5.75;;;4.22;;
13959;SDS011;7052;51.050;3.716;2023-04-16T14:14:34;7.07;;;4.20;;
13959;SDS011;7052;51.050;3.716;2023-04-16T14:17:01;6.97;;;4.17;;
13959;SDS011;7052;51.050;3.716;2023-04-16T14:19:29;5.67;;;4.20;;
13959;SDS011;7052;51.050;3.716;2023-04-16T14:21:57;7.43;;;4.50;;
13959;SDS011;7052;51.050;3.716;2023-04-16T14:24:24;6.50;;;3.80;;
13959;SDS011;7052;51.050;3.716;2023-04-16T14:26:51;6.10;;;4.07;;
13959;SDS011;7052;51.050;3.716;2023-04-16T14:29:23;6.37;;;4.13;;
13959;SDS011;7052;51.050;3.716;2023-04-16T14:31:51;6.60;;;4.47;;
13959;SDS011;7052;51.050;3.716;2023-04-16T14:34:19;8.17;;;4.00;;
13959;SDS011;7052;51.050;3.716;2023-04-16T14:36:47;6.10;;;4.03;;
13959;SDS011;7052;51.050;3.716;2023-04-16T14:39:16;4.93;;;3.70;;
13959;SDS011;7052;51.050;3.716;2023-04-16T14:41:53;4.75;;;3.83;;
13959;SDS011;7052;51.050;3.716;2023-04-16T14:44:20;7.82;;;4.45;;
13959;SDS011;7052;51.050;3.716;2023-04-16T14:47:05;7.60;;;4.83;;
13959;SDS011;7052;51.050;3.716;2023-04-16T14:49:36;5.20;;;4.13;;
13959;SDS011;7052;51.050;3.716;2023-04-16T14:52:04;5.27;;;4.47;;
13959;SDS011;7052;51.050;3.716;2023-04-16T14:54:33;8.13;;;4.20;;
13959;SDS011;7052;51.050;3.716;2023-04-16T14:57:03;9.40;;;4.60;;
13959;SDS011;7052;51.050;3.716;2023-04-16T14:59:30;7.45;;;4.68;;
13959;SDS011;7052;51.050;3.716;2023-04-16T15:02:01;5.22;;;4.20;;
13959;SDS011;7052;51.050;3.716;2023-04-16T15:04:32;5.85;;;4.82;;
13959;SDS011;7052;51.050;3.716;2023-04-16T15:06:59;7.68;;;5.00;;
13959;SDS011;7052;51.050;3.716;2023-04-16T15:09:30;8.73;;;5.20;;
13959;SDS011;7052;51.050;3.716;2023-04-16T15:12:01;10.73;;;6.03;;
13959;SDS011;7052;51.050;3.716;2023-04-16T15:14:31;7.57;;;5.80;;